Aérodrome :
LOGIN :

S'inscrire | Disclaimer

   EN    FR    IT 

 










Légende :    VFR   VFR Marginal   IFR   IFR Intensif   IFR Très Intensif
Visi : 
Plafond : 
>= 8 km
>= 3000ft
5 à 8 km
1000 à 3000 ft
1500m à 5 km
500 à 1000 ft
800 à 1500m
200 à 500 ft
< 800m
< 200 ft
Symboles :   Orages  Brouillard  Fortes neiges  Fortes précipitations  Vent > 20 kt
SIGMETs :   Divers  Orages  Givrage  Turbulence  Onde Orograph.  Cendres Volcan.






- Altitude de l'aérodrome : 502 ft
- Code IATA : ORK


EICK - Cork

DERNIER METAR :
  • 220100Z 26007KT CAVOK 06/02 Q1023 NOSIG

METARs EXPIRÉS :
  • 220030Z 25007KT CAVOK 05/02 Q1023 NOSIG
  • 220000Z 25005KT CAVOK 05/02 Q1023 NOSIG
  • 212330Z 22004KT CAVOK 05/01 Q1023 NOSIG
  • 212300Z 22003KT 9999 FEW031 07/02 Q1023 NOSIG
  • 212230Z 29004KT 9999 FEW031 07/02 Q1023 NOSIG

TAF TAF EICK
Valide du 22 à 00h jusqu'au 23 à 00h UTC


212300Z 2200/2224 27005KT 9999 FEW030
PROB30
TEMPO 2200/2206 3000 BR
BECMG 2209/2211 21012KT



MET'MAP, la Météo Aéronautique d'un coup d'oeil ! - Copyright ORBIFLY Décembre 2007 - Disclaimer

ORBIFLY MET'MAP TEAM :

Programmation & Développement : Alexandra Zaïnal
Conception & Développement : Baudouin d'Aumeries
Co-Programmation & Développement : Marc-Olivier Méhu
Soutien technique & logistique : Manuel Goepfert

Contact : metmap@orbifly.com




SOURCES & CREDITS :

   NOAA